createdAt,value
2016-10-07T00:00:42.491Z,86.58
2016-10-07T00:01:52.418Z,86.83
2016-10-07T00:03:02.439Z,86.88
2016-10-07T00:04:12.349Z,86.78
2016-10-07T00:05:22.268Z,86.4
2016-10-07T00:06:32.170Z,86.4
2016-10-07T00:07:41.999Z,86.68
2016-10-07T00:08:52.069Z,86.3
2016-10-07T00:10:16.459Z,86.3
2016-10-07T00:11:40.862Z,86.58
2016-10-07T00:12:50.686Z,86.58
2016-10-07T00:14:00.758Z,86.4
2016-10-07T00:15:10.582Z,86.3
2016-10-07T00:16:20.406Z,86.4
2016-10-07T00:17:30.228Z,86.4
2016-10-07T00:18:40.052Z,86.21
2016-10-07T00:19:49.876Z,86.58
2016-10-07T00:20:59.703Z,86.83
2016-10-07T00:22:09.530Z,87.02
2016-10-07T00:23:19.353Z,86.74
2016-10-07T00:24:29.175Z,86.21
2016-10-07T00:25:39.004Z,85.92
2016-10-07T00:27:03.404Z,86.35
2016-10-07T00:28:13.229Z,86.35
2016-10-07T00:29:23.054Z,86.54
2016-10-07T00:30:32.885Z,86.45
2016-10-07T00:31:57.284Z,86.16
2016-10-07T00:33:07.107Z,86.45
2016-10-07T00:34:16.928Z,86.45
2016-10-07T00:35:26.751Z,86.74
2016-10-07T00:36:36.575Z,86.54
2016-10-07T00:37:46.403Z,86.16
2016-10-07T00:38:56.228Z,85.58
2016-10-07T00:40:06.069Z,85.97
2016-10-07T00:41:16.388Z,85.88
2016-10-07T00:42:26.212Z,85.97
2016-10-07T00:43:50.604Z,85.39
2016-10-07T00:45:00.900Z,85.21
2016-10-07T00:46:10.727Z,85.44
2016-10-07T00:47:20.548Z,84.63
2016-10-07T00:48:45.191Z,85.01
2016-10-07T00:49:55.031Z,85.58
2016-10-07T00:51:19.420Z,86.07
2016-10-07T00:52:29.244Z,85.97
2016-10-07T00:53:39.322Z,85.49
2016-10-07T00:54:49.144Z,86.07
2016-10-07T00:55:58.970Z,85.97
2016-10-07T00:57:08.796Z,85.58
2016-10-07T00:58:18.619Z,85.78
2016-10-07T00:59:28.446Z,85.88
2016-10-07T01:00:38.276Z,86.35
2016-10-07T01:01:48.100Z,86.25
2016-10-07T01:02:58.064Z,85.97
2016-10-07T01:04:07.885Z,86.35
2016-10-07T01:05:17.958Z,86.16
2016-10-07T01:06:27.801Z,86.12
2016-10-07T01:07:37.634Z,86.6
2016-10-07T01:08:47.457Z,86.41
2016-10-07T01:09:57.310Z,86.21
2016-10-07T01:11:07.382Z,86.02
2016-10-07T01:12:17.221Z,86.02
2016-10-07T01:13:27.046Z,86.41
2016-10-07T01:14:36.869Z,86.12
2016-10-07T01:15:46.691Z,86.21
2016-10-07T01:16:56.531Z,86.12
2016-10-07T01:18:06.352Z,86.31
2016-10-07T01:19:16.173Z,86.41
2016-10-07T01:20:25.995Z,86.02
2016-10-07T01:21:35.817Z,86.21
2016-10-07T01:23:00.454Z,86.41
2016-10-07T01:24:10.278Z,86.5
2016-10-07T01:25:20.107Z,86.31
2016-10-07T01:26:29.931Z,86.6
2016-10-07T01:27:40.005Z,86.21
2016-10-07T01:28:49.828Z,86.79
2016-10-07T01:29:59.653Z,86.88
2016-10-07T01:31:09.472Z,86.79
2016-10-07T01:32:19.778Z,86.41
2016-10-07T01:33:29.906Z,86.69
2016-10-07T01:34:39.729Z,85.93
2016-10-07T01:37:13.952Z,86.69
2016-10-07T01:38:23.792Z,86.88
2016-10-07T01:39:33.616Z,86.98
2016-10-07T01:40:43.916Z,86.12
2016-10-07T01:41:53.743Z,86.41
2016-10-07T01:43:03.568Z,86.12
2016-10-07T01:44:13.639Z,85.83
2016-10-07T01:45:23.462Z,85.83
2016-10-07T01:46:33.286Z,86.41
2016-10-07T01:47:43.110Z,86.31
2016-10-07T01:48:52.941Z,86.12
2016-10-07T01:50:03.064Z,85.16
2016-10-07T01:51:12.885Z,85.16
2016-10-07T01:52:22.712Z,85.16
2016-10-07T01:53:32.541Z,85.83
2016-10-07T01:54:42.364Z,85.25
2016-10-07T01:55:52.207Z,85.54
2016-10-07T01:57:02.038Z,85.45
2016-10-07T01:58:11.865Z,85.35
2016-10-07T01:59:21.689Z,85.06
2016-10-07T02:00:31.514Z,85.16
2016-10-07T02:03:05.728Z,84.97
2016-10-07T02:04:15.548Z,84.97
2016-10-07T02:05:25.373Z,86.02
2016-10-07T02:06:35.191Z,85.06
2016-10-07T02:07:45.025Z,85.35
2016-10-07T02:08:55.325Z,85.45
2016-10-07T02:10:05.149Z,85.45
2016-10-07T02:11:29.539Z,85.83
2016-10-07T02:12:39.366Z,85.64
2016-10-07T02:13:49.199Z,85.45
2016-10-07T02:14:59.019Z,85.93
2016-10-07T02:16:08.843Z,85.83
2016-10-07T02:17:18.673Z,85.35
2016-10-07T02:18:28.498Z,85.25
2016-10-07T02:19:38.318Z,85.16
2016-10-07T02:20:48.142Z,85.25
2016-10-07T02:21:57.965Z,85.25
2016-10-07T02:23:07.788Z,84.78
2016-10-07T02:24:17.622Z,85.06
2016-10-07T02:25:27.447Z,84.88
2016-10-07T02:26:37.286Z,84.97
2016-10-07T02:27:47.113Z,84.49
2016-10-07T02:28:56.935Z,84.68
2016-10-07T02:30:06.757Z,83.92
2016-10-07T02:31:16.595Z,83.82
2016-10-07T02:32:40.984Z,84.11
2016-10-07T02:33:50.809Z,84.01
2016-10-07T02:35:00.629Z,84.2
2016-10-07T02:36:10.555Z,83.82
2016-10-07T02:37:20.377Z,84.49
2016-10-07T02:38:30.218Z,84.3
2016-10-07T02:39:40.043Z,84.58
2016-10-07T02:40:50.120Z,84.3
2016-10-07T02:41:59.939Z,84.01
2016-10-07T02:43:09.763Z,84.01
2016-10-07T02:44:20.063Z,83.44
2016-10-07T02:45:29.890Z,83.72
2016-10-07T02:46:39.713Z,83.63
2016-10-07T02:47:49.552Z,83.82
2016-10-07T02:48:59.900Z,83.92
2016-10-07T02:51:34.113Z,84.68
2016-10-07T02:52:43.936Z,84.01
2016-10-07T02:53:53.763Z,84.01
2016-10-07T02:55:03.584Z,83.82
2016-10-07T02:56:13.407Z,83.82
2016-10-07T02:57:37.900Z,82.86
2016-10-07T02:58:47.730Z,83.49
2016-10-07T02:59:57.562Z,83.34
2016-10-07T03:01:21.950Z,83.49
2016-10-07T03:02:31.775Z,83.97
2016-10-07T03:03:56.167Z,83.78
2016-10-07T03:05:20.558Z,84.45
2016-10-07T03:06:30.381Z,84.16
2016-10-07T03:07:40.458Z,83.59
2016-10-07T03:08:50.291Z,83.87
2016-10-07T03:10:00.115Z,84.26
2016-10-07T03:11:09.938Z,85.02
2016-10-07T03:12:19.762Z,84.45
2016-10-07T03:13:29.836Z,84.3
2016-10-07T03:14:39.660Z,83.34
2016-10-07T03:15:49.487Z,83.53
2016-10-07T03:16:59.315Z,83.82
2016-10-07T03:18:09.611Z,83.63
2016-10-07T03:19:19.539Z,82.86
2016-10-07T03:20:29.365Z,83.15
2016-10-07T03:21:39.189Z,82.29
2016-10-07T03:22:49.011Z,82.67
2016-10-07T03:23:58.838Z,82.76
2016-10-07T03:25:08.657Z,82.38
2016-10-07T03:26:18.484Z,82.48
2016-10-07T03:27:28.321Z,82.48
2016-10-07T03:28:38.149Z,82.48
2016-10-07T03:29:48.445Z,82.57
2016-10-07T03:30:58.521Z,82.57
2016-10-07T03:32:08.346Z,81.62
2016-10-07T03:33:18.172Z,81.81
2016-10-07T03:34:28.482Z,82.19
2016-10-07T03:35:38.308Z,81.71
2016-10-07T03:36:48.238Z,81.62
2016-10-07T03:37:58.068Z,82
2016-10-07T03:39:07.891Z,81.81
2016-10-07T03:40:18.203Z,81.71
2016-10-07T03:41:28.500Z,81.23
2016-10-07T03:42:52.890Z,81.81
2016-10-07T03:44:02.771Z,82
2016-10-07T03:45:12.665Z,81.62
2016-10-07T03:46:22.567Z,81.81
2016-10-07T03:47:32.580Z,81.62
2016-10-07T03:48:42.476Z,81.04
2016-10-07T03:49:52.862Z,81.23
2016-10-07T03:51:02.758Z,80.94
2016-10-07T03:52:12.660Z,80.85
2016-10-07T03:53:37.355Z,81.71
2016-10-07T03:54:47.748Z,81.81
2016-10-07T03:56:12.673Z,81.52
2016-10-07T03:57:22.571Z,82.19
2016-10-07T03:58:32.468Z,82.48
2016-10-07T03:59:42.371Z,82.29
2016-10-07T04:00:52.265Z,82.09
2016-10-07T04:02:02.162Z,82.38
2016-10-07T04:03:12.552Z,82.48
2016-10-07T04:04:22.463Z,83.34
2016-10-07T04:05:32.847Z,83.15
2016-10-07T04:06:57.290Z,82.76
2016-10-07T04:08:22.704Z,82.67
2016-10-07T04:09:32.852Z,82.48
2016-10-07T04:10:57.298Z,82.38
2016-10-07T04:12:07.192Z,83.2
2016-10-07T04:13:17.088Z,83.01
2016-10-07T04:14:27.468Z,83.49
2016-10-07T04:15:37.391Z,83.39
2016-10-07T04:19:36.300Z,83.39
2016-10-07T04:20:46.676Z,83.68
2016-10-07T04:21:56.575Z,83.87
2016-10-07T04:23:06.471Z,84.16
2016-10-07T04:24:16.850Z,84.06
2016-10-07T04:25:41.298Z,83.78
2016-10-07T04:26:51.197Z,83.68
2016-10-07T04:28:01.592Z,83.78
2016-10-07T04:29:11.489Z,83.39
2016-10-07T04:30:21.635Z,83.97
2016-10-07T04:31:31.540Z,83.3
2016-10-07T04:32:41.435Z,83.78
2016-10-07T04:33:51.334Z,83.87
2016-10-07T04:35:01.718Z,83.49
2016-10-07T04:36:12.096Z,83.49
2016-10-07T04:37:21.994Z,83.59
2016-10-07T04:38:31.887Z,83.59
2016-10-07T04:39:41.778Z,82.34
2016-10-07T04:40:51.675Z,82.63
2016-10-07T04:42:01.821Z,82.57
2016-10-07T04:43:11.717Z,82
2016-10-07T04:44:21.617Z,82.34
2016-10-07T04:45:31.513Z,82.53
2016-10-07T04:46:41.411Z,82.34
2016-10-07T04:47:51.307Z,82.43
2016-10-07T04:49:01.204Z,82.53
2016-10-07T04:50:11.098Z,83.11
2016-10-07T04:51:20.995Z,83.3
2016-10-07T04:52:30.891Z,83.11
2016-10-07T04:53:41.038Z,83.49
2016-10-07T04:54:50.933Z,82.53
2016-10-07T04:56:00.833Z,82.48
2016-10-07T04:57:10.725Z,82.09
2016-10-07T04:58:20.616Z,82.29
2016-10-07T04:59:30.764Z,82.57
2016-10-07T05:00:40.659Z,82.19
2016-10-07T05:01:50.555Z,82.67
2016-10-07T05:04:24.892Z,82.34
2016-10-07T05:05:34.890Z,82.43
2016-10-07T05:06:44.785Z,82.15
2016-10-07T05:07:54.682Z,82.53
2016-10-07T05:09:04.579Z,83.49
2016-10-07T05:10:14.578Z,82.73
2016-10-07T05:11:24.478Z,82.24
2016-10-07T05:12:34.373Z,83.49
2016-10-07T05:13:44.265Z,83.39
2016-10-07T05:14:54.163Z,82.92
2016-10-07T05:16:04.073Z,83.3
2016-10-07T05:17:13.976Z,83.2
2016-10-07T05:18:23.879Z,82.34
2016-10-07T05:20:58.218Z,82.24
2016-10-07T05:22:08.113Z,82.24
2016-10-07T05:23:18.016Z,82.63
2016-10-07T05:24:27.912Z,82.24
2016-10-07T05:25:37.810Z,83.2
2016-10-07T05:26:47.710Z,83.01
2016-10-07T05:27:57.609Z,83.11
2016-10-07T05:29:07.507Z,83.3
2016-10-07T05:30:17.409Z,82.63
2016-10-07T05:31:27.317Z,82.24
2016-10-07T05:32:37.312Z,82.53
2016-10-07T05:33:47.213Z,82.34
2016-10-07T05:34:57.111Z,82.34
2016-10-07T05:36:07.489Z,82.53
2016-10-07T05:37:17.386Z,82.53
2016-10-07T05:38:27.281Z,82.73
2016-10-07T05:39:37.173Z,82.24
2016-10-07T05:40:47.073Z,82.34
2016-10-07T05:41:56.971Z,82.53
2016-10-07T05:43:06.893Z,82.34
2016-10-07T05:44:16.887Z,82.43
2016-10-07T05:45:26.780Z,83.11
2016-10-07T05:46:36.697Z,83.2
2016-10-07T05:47:46.592Z,83.49
2016-10-07T05:48:56.489Z,83.49
2016-10-07T05:50:06.380Z,83.39
2016-10-07T05:51:16.276Z,83.59
2016-10-07T05:52:26.168Z,83.87
2016-10-07T05:53:36.063Z,83.87
2016-10-07T05:54:45.958Z,83.97
2016-10-07T05:56:10.649Z,83.2
2016-10-07T05:57:20.543Z,83.49
2016-10-07T05:58:30.440Z,83.01
2016-10-07T05:59:40.334Z,83.11
2016-10-07T06:00:50.485Z,82.92
2016-10-07T06:02:00.382Z,83.68
2016-10-07T06:03:10.275Z,83.39
2016-10-07T06:04:20.173Z,83.78
2016-10-07T06:05:30.071Z,83.68
2016-10-07T06:06:40.069Z,84.35
2016-10-07T06:07:49.968Z,84.83
2016-10-07T06:08:59.864Z,84.74
2016-10-07T06:10:09.757Z,85.98
2016-10-07T06:11:19.653Z,85.02
2016-10-07T06:12:29.646Z,85.79
2016-10-07T06:13:39.544Z,86.17
2016-10-07T06:14:49.448Z,85.98
2016-10-07T06:15:59.354Z,85.88
2016-10-07T06:17:09.249Z,85.79
2016-10-07T06:18:19.410Z,85.6
2016-10-07T06:19:29.399Z,85.98
2016-10-07T06:22:03.902Z,86.61
2016-10-07T06:23:13.893Z,86.7
2016-10-07T06:24:23.884Z,87.27
2016-10-07T06:25:34.384Z,86.99
2016-10-07T06:26:44.376Z,87.76
2016-10-07T06:27:54.366Z,87.85
2016-10-07T06:29:04.610Z,87.66
2016-10-07T06:30:14.602Z,86.7
2016-10-07T06:31:24.592Z,86.99
2016-10-07T06:32:49.104Z,86.99
2016-10-07T06:34:13.871Z,86.84
2016-10-07T06:35:23.861Z,86.99
2016-10-07T06:36:33.857Z,87.08
2016-10-07T06:37:43.855Z,87.08
2016-10-07T06:38:53.847Z,87.27
2016-10-07T06:40:03.842Z,87.18
2016-10-07T06:42:38.848Z,87.18
2016-10-07T06:43:48.847Z,86.7
2016-10-07T06:44:58.837Z,86.61
2016-10-07T06:46:09.078Z,87.08
2016-10-07T06:47:19.065Z,87.08
2016-10-07T06:48:29.059Z,86.99
2016-10-07T06:49:39.045Z,86.99
2016-10-07T06:50:49.538Z,87.47
2016-10-07T06:51:59.522Z,86.99
2016-10-07T06:53:23.965Z,87.18
2016-10-07T06:54:48.408Z,86.9
2016-10-07T06:57:22.750Z,86.55
2016-10-07T06:58:32.644Z,86.27
2016-10-07T06:59:42.537Z,86.46
2016-10-07T07:00:52.439Z,86.08
2016-10-07T07:02:02.334Z,86.36
2016-10-07T07:03:12.231Z,85.79
2016-10-07T07:04:22.126Z,85.6
2016-10-07T07:05:32.021Z,84.92
2016-10-07T07:06:42.014Z,84.83
2016-10-07T07:09:16.357Z,84.83
2016-10-07T07:10:26.257Z,85.79
2016-10-07T07:11:36.155Z,85.84
2016-10-07T07:12:46.163Z,85.65
2016-10-07T07:13:56.077Z,86.22
2016-10-07T07:15:05.972Z,86.13
2016-10-07T07:16:15.866Z,86.41
2016-10-07T07:17:25.866Z,86.22
2016-10-07T07:18:35.762Z,86.22
2016-10-07T07:19:45.657Z,86.22
2016-10-07T07:21:10.110Z,85.75
2016-10-07T07:22:34.553Z,86.13
2016-10-07T07:23:44.448Z,86.51
2016-10-07T07:24:54.344Z,86.7
2016-10-07T07:26:04.243Z,86.51
2016-10-07T07:27:14.143Z,86.61
2016-10-07T07:28:24.269Z,86.61
2016-10-07T07:29:34.090Z,86.22
2016-10-07T07:30:43.912Z,86.22
2016-10-07T07:31:53.740Z,86.61
2016-10-07T07:33:03.569Z,86.61
2016-10-07T07:34:13.485Z,86.9
2016-10-07T07:35:23.306Z,86.99
2016-10-07T07:36:33.124Z,86.7
2016-10-07T07:37:42.945Z,86.8
2016-10-07T07:38:52.769Z,86.22
2016-10-07T07:40:02.592Z,86.9
2016-10-07T07:41:12.412Z,86.51
2016-10-07T07:42:22.233Z,86.8
2016-10-07T07:43:32.056Z,87.66
2016-10-07T07:44:41.879Z,88.04
2016-10-07T07:45:51.949Z,88.23
2016-10-07T07:47:01.770Z,87.66
2016-10-07T07:48:11.593Z,87.95
2016-10-07T07:49:21.411Z,87.47
2016-10-07T07:50:31.238Z,87.56
2016-10-07T07:51:41.055Z,87.18
2016-10-07T07:52:50.883Z,86.9
2016-10-07T07:54:00.704Z,86.61
2016-10-07T07:55:10.527Z,87.27
2016-10-07T07:56:20.350Z,86.9
2016-10-07T07:57:30.423Z,86.99
2016-10-07T07:58:40.245Z,87.08
2016-10-07T07:59:50.077Z,86.8
2016-10-07T08:00:59.918Z,87.08
2016-10-07T08:02:09.831Z,87.08
2016-10-07T08:03:19.850Z,86.61
2016-10-07T08:04:29.760Z,86.22
2016-10-07T08:05:39.677Z,86.22
2016-10-07T08:06:49.592Z,86.13
2016-10-07T08:07:59.506Z,86.51
2016-10-07T08:09:09.563Z,85.84
2016-10-07T08:10:34.025Z,85.46
2016-10-07T08:11:43.942Z,86.41
2016-10-07T08:12:53.857Z,86.04
2016-10-07T08:14:03.773Z,86.41
2016-10-07T08:15:13.996Z,86.51
2016-10-07T08:16:23.913Z,86.7
2016-10-07T08:17:33.829Z,87.27
2016-10-07T08:20:08.321Z,86.51
2016-10-07T08:21:18.240Z,85.84
2016-10-07T08:22:28.157Z,86.32
2016-10-07T08:23:38.075Z,86.22
2016-10-07T08:25:02.531Z,86.22
2016-10-07T08:26:27.090Z,86.04
2016-10-07T08:27:37.008Z,86.04
2016-10-07T08:28:46.925Z,86.13
2016-10-07T08:29:56.843Z,86.32
2016-10-07T08:31:07.007Z,86.13
2016-10-07T08:32:16.925Z,86.22
2016-10-07T08:33:26.842Z,86.41
2016-10-07T08:34:36.761Z,86.32
2016-10-07T08:35:46.683Z,86.04
2016-10-07T08:36:56.703Z,85.36
2016-10-07T08:38:06.620Z,85.84
2016-10-07T08:39:16.540Z,86.22
2016-10-07T08:40:26.451Z,85.46
2016-10-07T08:41:36.373Z,84.98
2016-10-07T08:42:46.543Z,85.36
2016-10-07T08:43:56.472Z,84.79
2016-10-07T08:45:06.392Z,84.5
2016-10-07T08:46:16.307Z,84.69
2016-10-07T08:47:26.223Z,84.5
2016-10-07T08:48:36.241Z,84.69
2016-10-07T08:49:46.158Z,84.69
2016-10-07T08:50:56.073Z,84.79
2016-10-07T08:52:05.987Z,84.69
2016-10-07T08:53:15.902Z,85.55
2016-10-07T08:54:26.067Z,85.32
2016-10-07T08:55:50.529Z,85.46
2016-10-07T08:57:00.447Z,85.46
2016-10-07T08:58:10.381Z,85.71
2016-10-07T08:59:20.377Z,85.17
2016-10-07T09:00:30.365Z,84.98
2016-10-07T09:01:40.364Z,84.88
2016-10-07T09:02:50.357Z,85.55
2016-10-07T09:04:00.350Z,85.17
2016-10-07T09:05:10.336Z,85.75
2016-10-07T09:06:20.327Z,85.17
2016-10-07T09:07:30.322Z,85.17
2016-10-07T09:08:40.308Z,84.69
2016-10-07T09:10:04.753Z,84.5
2016-10-07T09:11:14.894Z,83.64
2016-10-07T09:12:24.788Z,83.45
2016-10-07T09:13:34.688Z,84.12
2016-10-07T09:14:44.603Z,83.54
2016-10-07T09:15:54.597Z,83.31
2016-10-07T09:17:04.493Z,83.36
2016-10-07T09:18:14.384Z,83.36
2016-10-07T09:19:24.279Z,83.31
2016-10-07T09:20:34.181Z,83.31
2016-10-07T09:23:08.519Z,82.4
2016-10-07T09:24:18.411Z,83.4
2016-10-07T09:25:28.312Z,83.26
2016-10-07T09:26:38.213Z,83.26
2016-10-07T09:27:48.359Z,82.49
2016-10-07T09:28:58.742Z,82.59
2016-10-07T09:30:08.636Z,82.01
2016-10-07T09:31:18.535Z,82.2
2016-10-07T09:32:28.531Z,82.11
2016-10-07T09:33:38.427Z,81.82
2016-10-07T09:34:48.321Z,81.73
2016-10-07T09:35:58.220Z,81.44
2016-10-07T09:37:08.119Z,81.05
2016-10-07T09:38:32.562Z,81.15
2016-10-07T09:39:42.456Z,81.05
2016-10-07T09:40:52.364Z,80.77
2016-10-07T09:42:02.265Z,81.1
2016-10-07T09:43:12.175Z,81.25
2016-10-07T09:44:22.165Z,80.96
2016-10-07T09:45:32.156Z,81.34
2016-10-07T09:46:42.148Z,81.25
2016-10-07T09:47:52.138Z,81.92
2016-10-07T09:49:02.130Z,82.11
2016-10-07T09:50:12.367Z,81.73
2016-10-07T09:51:22.353Z,80.96
2016-10-07T09:52:46.867Z,81.54
2016-10-07T09:55:21.364Z,80.9
2016-10-07T09:56:31.351Z,81
2016-10-07T09:57:41.341Z,81.25
2016-10-07T09:58:51.331Z,81.54
2016-10-07T10:00:01.317Z,80.43
2016-10-07T10:01:11.312Z,80.04
2016-10-07T10:02:21.302Z,80.58
2016-10-07T10:03:31.291Z,80.48
2016-10-07T10:04:41.281Z,80.48
2016-10-07T10:05:51.271Z,80.24
2016-10-07T10:07:01.362Z,80.62
2016-10-07T10:08:11.355Z,80.24
2016-10-07T10:09:21.345Z,80.04
2016-10-07T10:10:31.348Z,80.14
2016-10-07T10:11:41.340Z,80.33
2016-10-07T10:14:15.842Z,80.04
2016-10-07T10:15:25.836Z,79.75
2016-10-07T10:16:35.826Z,79.85
2016-10-07T10:17:45.804Z,80.04
2016-10-07T10:18:55.949Z,79.66
2016-10-07T10:20:05.843Z,80.14
2016-10-07T10:21:15.736Z,79.85
2016-10-07T10:22:25.630Z,79.75
2016-10-07T10:23:50.073Z,79.95
2016-10-07T10:24:59.978Z,80.14
2016-10-07T10:26:09.871Z,79.66
2016-10-07T10:27:19.766Z,80.81
2016-10-07T10:28:29.662Z,80.43
2016-10-07T10:29:39.558Z,79.95
2016-10-07T10:30:49.462Z,79.75
2016-10-07T10:31:59.353Z,79.85
2016-10-07T10:33:09.264Z,80.04
2016-10-07T10:34:19.159Z,79.75
2016-10-07T10:35:29.152Z,79.57
2016-10-07T10:36:39.046Z,79.28
2016-10-07T10:37:48.940Z,79.89
2016-10-07T10:38:58.834Z,79.8
2016-10-07T10:40:08.730Z,79.22
2016-10-07T10:41:18.879Z,79.22
2016-10-07T10:42:28.775Z,79.32
2016-10-07T10:43:53.218Z,78.84
2016-10-07T10:45:03.112Z,78.84
2016-10-07T10:46:13.008Z,78.93
2016-10-07T10:47:23.003Z,78.84
2016-10-07T10:48:32.897Z,78.93
2016-10-07T10:51:07.238Z,77.92
2016-10-07T10:52:17.231Z,78.11
2016-10-07T10:53:27.129Z,77.25
2016-10-07T10:54:37.025Z,76.86
2016-10-07T10:55:46.922Z,76.86
2016-10-07T10:56:56.862Z,76.52
2016-10-07T10:58:21.564Z,76.32
2016-10-07T10:59:31.462Z,76.52
2016-10-07T11:02:05.811Z,76.9
2016-10-07T11:03:15.804Z,75.95
2016-10-07T11:04:25.701Z,76.62
2016-10-07T11:05:35.596Z,76.57
2016-10-07T11:06:45.492Z,77.15
2016-10-07T11:07:55.379Z,77.06
2016-10-07T11:09:19.818Z,78.02
2016-10-07T11:10:44.264Z,78.4
2016-10-07T11:11:54.164Z,79.07
2016-10-07T11:13:04.061Z,78.97
2016-10-07T11:14:28.504Z,78.69
2016-10-07T11:15:38.397Z,78.78
2016-10-07T11:16:48.292Z,79.07
2016-10-07T11:17:58.185Z,79.64
2016-10-07T11:19:08.091Z,79.64
2016-10-07T11:20:17.984Z,79.36
2016-10-07T11:21:27.884Z,79.83
2016-10-07T11:22:37.773Z,81.12
2016-10-07T11:23:48.451Z,80.93
2016-10-07T11:24:58.348Z,80.89
2016-10-07T11:26:08.350Z,81.75
2016-10-07T11:27:18.260Z,81.66
2016-10-07T11:28:28.752Z,82.14
2016-10-07T11:29:38.760Z,82.62
2016-10-07T11:30:48.747Z,82.32
2016-10-07T11:31:58.844Z,82.14
2016-10-07T11:33:08.832Z,82.96
2016-10-07T11:34:18.828Z,83.67
2016-10-07T11:35:28.814Z,83.09
2016-10-07T11:38:03.319Z,80.7
2016-10-07T11:39:13.321Z,80.99
2016-10-07T11:41:47.841Z,80.41
2016-10-07T11:42:57.831Z,80.89
2016-10-07T11:44:07.817Z,79.68
2016-10-07T11:45:17.810Z,79.39
2016-10-07T11:46:27.798Z,78.63
2016-10-07T11:47:38.292Z,79.3
2016-10-07T11:48:48.382Z,78.72
2016-10-07T11:49:58.375Z,77.19
2016-10-07T11:51:08.384Z,77.29
2016-10-07T11:52:18.375Z,76.23
2016-10-07T11:53:28.362Z,75.85
2016-10-07T11:54:38.347Z,75.85
2016-10-07T11:55:48.342Z,74.54
2016-10-07T11:56:58.343Z,74.44
2016-10-07T11:58:22.862Z,74.54
2016-10-07T11:59:32.858Z,74.73
2016-10-07T12:00:43.104Z,74.73
2016-10-07T12:01:53.080Z,75.4
2016-10-07T12:03:17.523Z,75.46
2016-10-07T12:04:27.415Z,75.4
2016-10-07T12:05:37.413Z,75.85
2016-10-07T12:06:47.304Z,76.14
2016-10-07T12:07:57.197Z,76.71
2016-10-07T12:09:07.095Z,76.62
2016-10-07T12:10:16.989Z,76.71
2016-10-07T12:11:26.884Z,76.81
2016-10-07T12:12:36.779Z,77.19
2016-10-07T12:13:46.669Z,76.71
2016-10-07T12:14:56.563Z,76.71
2016-10-07T12:16:06.454Z,77.19
2016-10-07T12:17:16.466Z,77.73
2016-10-07T12:18:26.358Z,77.53
2016-10-07T12:19:36.248Z,77.15
2016-10-07T12:20:46.143Z,78.05
2016-10-07T12:22:10.589Z,76.23
2016-10-07T12:23:20.490Z,76.14
2016-10-07T12:24:30.874Z,76.32
2016-10-07T12:25:40.766Z,76.04
2016-10-07T12:26:50.656Z,75.75
2016-10-07T12:28:15.405Z,75.95
2016-10-07T12:30:49.750Z,75.56
2016-10-07T12:33:24.080Z,74.35
2016-10-07T12:34:34.468Z,74.35
2016-10-07T12:35:58.920Z,74.54
2016-10-07T12:37:08.922Z,73.77
2016-10-07T12:38:18.911Z,74.19
2016-10-07T12:39:28.901Z,72.47
2016-10-07T12:40:38.909Z,71.89
2016-10-07T12:42:03.430Z,71.83
2016-10-07T12:43:13.430Z,71.73
2016-10-07T12:44:24.365Z,70.49
2016-10-07T12:45:34.361Z,69.24
2016-10-07T12:46:44.350Z,68.57
2016-10-07T12:47:54.343Z,68.95
2016-10-07T12:49:18.861Z,69.24
2016-10-07T12:50:28.858Z,69.53
2016-10-07T12:51:38.850Z,69.72
2016-10-07T12:52:48.843Z,69.24
2016-10-07T12:53:58.834Z,69.72
2016-10-07T12:55:08.927Z,69.08
2016-10-07T12:56:18.920Z,68.95
2016-10-07T12:57:28.914Z,69.24
2016-10-07T12:58:38.910Z,69.43
2016-10-07T12:59:48.904Z,69.24
2016-10-07T13:00:59.157Z,68.89
2016-10-07T13:02:09.161Z,68.7
2016-10-07T13:03:19.338Z,67.83
2016-10-07T13:05:54.856Z,66.3
2016-10-07T13:07:05.100Z,66.58
2016-10-07T13:08:16.134Z,67.07
2016-10-07T13:09:27.165Z,67.35
2016-10-07T13:10:37.700Z,67.16
2016-10-07T13:11:48.232Z,65.94
2016-10-07T13:12:58.764Z,64.6
2016-10-07T13:14:09.311Z,64.89
2016-10-07T13:15:19.845Z,64.79
2016-10-07T13:16:30.384Z,62.99
2016-10-07T13:17:40.921Z,62.93
2016-10-07T13:18:51.464Z,62.16
2016-10-07T13:20:02.033Z,60.75
2016-10-07T13:21:12.569Z,60.07
2016-10-07T13:22:23.108Z,60.46
2016-10-07T13:23:33.666Z,59.88
2016-10-07T13:24:44.203Z,59.3
2016-10-07T13:25:55.228Z,59.33
2016-10-07T13:27:05.763Z,58.95
2016-10-07T13:28:16.263Z,59.81
2016-10-07T13:29:26.703Z,60.27
2016-10-07T13:32:02.133Z,61.04
2016-10-07T13:34:37.567Z,62.54
2016-10-07T13:35:48.012Z,63.76
2016-10-07T13:36:58.460Z,62.99
2016-10-07T13:38:09.392Z,62.13
2016-10-07T13:39:19.836Z,62.35
2016-10-07T13:40:30.541Z,60.62
2016-10-07T13:41:40.983Z,60.81
2016-10-07T13:42:51.423Z,60.91
2016-10-07T13:44:01.877Z,60.91
2016-10-07T13:45:12.323Z,58.34
2016-10-07T13:46:23.270Z,57.89
2016-10-07T13:47:34.595Z,57.02
2016-10-07T13:48:45.397Z,55.22
2016-10-07T13:49:55.721Z,54.86
2016-10-07T13:51:06.064Z,53.22
2016-10-07T13:52:16.485Z,53.03
2016-10-07T13:53:26.809Z,53.03
2016-10-07T13:54:37.145Z,53.22
2016-10-07T13:55:47.672Z,53.7
2016-10-07T13:56:57.996Z,55.05
2016-10-07T13:58:08.321Z,54.86
2016-10-07T13:59:18.662Z,55.92
2016-10-07T14:00:29.138Z,55.22
2016-10-07T14:01:39.478Z,55.79
2016-10-07T14:02:49.798Z,56.09
2016-10-07T14:04:00.426Z,57.24
2016-10-07T14:05:25.314Z,58.17
2016-10-07T14:06:35.638Z,58.56
2016-10-07T14:07:45.959Z,59.01
2016-10-07T14:08:56.782Z,59.88
2016-10-07T14:10:21.673Z,60.46
2016-10-07T14:11:46.562Z,60.72
2016-10-07T14:12:56.886Z,59.66
2016-10-07T14:14:07.207Z,58.72
2016-10-07T14:15:17.530Z,57.95
2016-10-07T14:16:42.423Z,57.57
2016-10-07T14:17:52.747Z,56.85
2016-10-07T14:19:03.068Z,55.22
2016-10-07T14:20:13.398Z,54.44
2016-10-07T14:21:23.756Z,52.73
2016-10-07T14:22:34.208Z,52.93
2016-10-07T14:23:44.650Z,53.34
2016-10-07T14:24:55.093Z,52.28
2016-10-07T14:26:05.534Z,51.51
2016-10-07T14:27:15.975Z,50.76
2016-10-07T14:28:26.426Z,50.76
2016-10-07T14:29:37.238Z,50.38
2016-10-07T14:30:48.524Z,49.99
2016-10-07T14:31:58.974Z,49.34
2016-10-07T14:33:09.424Z,47.89
2016-10-07T14:34:19.882Z,47.22
2016-10-07T14:35:30.326Z,46.83
2016-10-07T14:36:41.077Z,47.41
2016-10-07T14:37:51.523Z,47.41
2016-10-07T14:39:01.964Z,48.95
2016-10-07T14:40:12.419Z,48.66
2016-10-07T14:41:22.871Z,47.91
2016-10-07T14:42:47.856Z,48.49
2016-10-07T14:43:58.298Z,49.55
2016-10-07T14:45:23.286Z,49.46
2016-10-07T14:46:33.725Z,49.92
2016-10-07T14:47:44.673Z,50.13
2016-10-07T14:48:55.118Z,49.82
2016-10-07T14:50:05.746Z,50.31
2016-10-07T14:51:16.191Z,50.52
2016-10-07T14:52:27.122Z,49.82
2016-10-07T14:53:37.563Z,49.55
2016-10-07T14:54:48.006Z,50.21
2016-10-07T14:55:58.372Z,49.44
2016-10-07T14:57:08.692Z,49.51
2016-10-07T14:58:19.022Z,49.7
2016-10-07T14:59:29.648Z,49.32
2016-10-07T15:00:39.981Z,49.9
2016-10-07T15:01:50.314Z,49.99
2016-10-07T15:03:01.152Z,50.47
2016-10-07T15:04:11.488Z,51.53
2016-10-07T15:05:21.814Z,52.19
2016-10-07T15:06:32.136Z,53.44
2016-10-07T15:07:42.471Z,54.6
2016-10-07T15:08:52.793Z,54.96
2016-10-07T15:10:03.120Z,54.66
2016-10-07T15:11:13.919Z,54.66
2016-10-07T15:12:24.718Z,54.47
2016-10-07T15:13:35.724Z,54.5
2016-10-07T15:14:46.051Z,53.73
2016-10-07T15:15:57.144Z,54.11
2016-10-07T15:17:07.638Z,52.67
2016-10-07T15:18:17.975Z,53.22
2016-10-07T15:19:28.302Z,53.13
2016-10-07T15:20:38.641Z,53.7
2016-10-07T15:22:03.539Z,53.99
2016-10-07T15:24:38.759Z,52.93
2016-10-07T15:25:49.089Z,52.73
2016-10-07T15:26:59.522Z,52.76
2016-10-07T15:28:09.850Z,53.25
2016-10-07T15:29:20.174Z,54.4
2016-10-07T15:30:30.501Z,54.69
2016-10-07T15:31:40.828Z,54.98
2016-10-07T15:32:51.377Z,54.5
2016-10-07T15:34:01.700Z,54.88
2016-10-07T15:36:36.918Z,54.66
2016-10-07T15:37:47.242Z,53.44
2016-10-07T15:38:57.668Z,52.86
2016-10-07T15:40:08.469Z,54.38
2016-10-07T15:41:18.796Z,54.76
2016-10-07T15:42:29.124Z,56.09
2016-10-07T15:43:39.446Z,56.59
2016-10-07T15:44:50.258Z,56.88
2016-10-07T15:46:00.583Z,55.82
2016-10-07T15:47:10.951Z,56.11
2016-10-07T15:48:21.294Z,56.88
2016-10-07T15:49:31.620Z,56.69
2016-10-07T15:50:41.943Z,56.11
2016-10-07T15:53:17.164Z,57.17
2016-10-07T15:54:27.492Z,55.51
2016-10-07T15:55:37.818Z,55.6
2016-10-07T15:56:48.144Z,55.89